If you wish to contribute or participate in the discussions about articles you are invited to join SKYbrary as a registered user

 Actions

Albany Airport (Australia)

From SKYbrary Wiki

YABA /
Revision as of 07:13, 1 July 2020 by Admin (talk | contribs) (Text replacement - "{{Show_Airportmaps}} " to "{{ShowAirportMap|TerrainZoom=10|AirportLayoutZoom=13}} ")
(diff) ← Older revision | Latest revision (diff) | Newer revision → (diff)
Airport
ICAO: YABA – IATA: ALH
Summary
Name Albany Airport (Australia)
Region Asia and Pacific
Territory Australia AU.gif
Location Drome, Western Australia
Serving Albany
Elevation 71.018 m <br />233 ft <br />233 ft71.018 m <br />
Type medium airport
Coordinates 34° 56' 35.88" S, 117° 48' 32.40" E
Runways
Designator Length Width Surface ROPS
5/23 1096 m3,595.801 ft <br /> 30 m98.425 ft <br /> GVL /
14/32 1800 m5,905.512 ft <br /> 30 m98.425 ft <br /> ASP /


METAR
Observation YABA 261329Z AUTO 29015KT 8000 // SCT017 SCT045 BKN058 11/10 Q0989
Station Albany Aerodrome
Date/Time 26 July 2021 13:29:00
Wind direction 290°
Wind speed 15 kts
Lowest cloud amount scattered clouds
Temperature 11°C
Dew point 10°C
Humidity 93%
QNH 989 hPa
Weather condition n/a

Maps

Terrain

Loading map...

Airport Layout

Loading map...


Accidents & Serious Incidents at or in vicinity of YABA

None on SKYbrary